Time;durP1;ratioP1;P1;durP2;ratioP2;P2;SDS_P1;SDS_P2;PMS_P1;PMS_P2;Temp;Humidity;BMP_temperature;BMP_pressure;BME280_temperature;BME280_humidity;BME280_pressure;Samples;Min_cycle;Max_cycle;Signal;HPM_P1;HPM_P2
2021/01/14 00:00:27;;;;;;;66.82;35.35;;;;;;;-0.37;85.30;99047.78;1679723;85;25667;-52
2021/01/14 00:02:57;;;;;;;71.65;35.52;;;;;;;-0.38;85.18;99051.48;1679565;85;26354;-51
2021/01/14 00:05:23;;;;;;;65.45;33.30;;;;;;;-0.39;85.28;99054.69;1679725;85;25719;-55
2021/01/14 00:07:50;;;;;;;69.32;35.55;;;;;;;-0.39;85.47;99049.38;1679844;85;25811;-55
2021/01/14 00:10:17;;;;;;;69.67;37.65;;;;;;;-0.38;85.49;99048.83;1679632;85;25772;-55
2021/01/14 00:12:44;;;;;;;70.75;36.53;;;;;;;-0.39;85.52;99048.59;1679685;85;26536;-56
2021/01/14 00:15:15;;;;;;;64.87;34.45;;;;;;;-0.37;85.75;99043.80;1679821;85;26179;-54
2021/01/14 00:17:43;;;;;;;72.25;34.67;;;;;;;-0.35;86.15;99042.98;1679864;85;25723;-53
2021/01/14 00:20:18;;;;;;;69.85;35.50;;;;;;;-0.32;86.22;99039.80;1679125;83;25830;-54
2021/01/14 00:22:47;;;;;;;71.45;36.23;;;;;;;-0.30;86.06;99038.21;1679086;84;25768;-55
2021/01/14 00:25:16;;;;;;;67.82;35.25;;;;;;;-0.32;85.84;99042.46;1679108;85;25878;-55
2021/01/14 00:27:43;;;;;;;72.10;35.00;;;;;;;-0.34;85.78;99039.28;1679192;84;25810;-55
2021/01/14 00:30:17;;;;;;;73.78;35.70;;;;;;;-0.36;85.67;99041.92;1679050;84;25890;-54
2021/01/14 00:32:44;;;;;;;75.35;37.53;;;;;;;-0.36;85.66;99048.02;1678884;85;26496;-55
2021/01/14 00:35:11;;;;;;;80.90;37.13;;;;;;;-0.38;85.64;99045.63;1679103;85;25760;-53
2021/01/14 00:37:50;;;;;;;75.42;35.90;;;;;;;-0.38;85.61;99043.52;1678992;85;26304;-55
2021/01/14 00:40:28;;;;;;;74.75;37.48;;;;;;;-0.38;85.64;99039.53;1679223;84;31796;-54
2021/01/14 00:43:08;;;;;;;76.67;37.70;;;;;;;-0.38;85.67;99044.30;1679060;84;26058;-55
2021/01/14 00:45:36;;;;;;;78.72;39.38;;;;;;;-0.39;85.66;99039.28;1679037;85;25807;-55
2021/01/14 00:48:05;;;;;;;82.60;40.00;;;;;;;-0.39;85.64;99045.93;1678974;84;25829;-55
2021/01/14 00:50:31;;;;;;;77.97;40.30;;;;;;;-0.39;85.62;99049.91;1679076;83;25791;-55
2021/01/14 00:52:58;;;;;;;92.90;45.15;;;;;;;-0.39;85.68;99045.93;1678914;85;25946;-55
2021/01/14 00:55:26;;;;;;;95.15;43.35;;;;;;;-0.39;85.61;99038.75;1678997;85;26030;-55
2021/01/14 00:57:53;;;;;;;81.63;42.13;;;;;;;-0.40;85.58;99040.34;1679063;85;26266;-55
2021/01/14 01:00:23;;;;;;;91.75;44.42;;;;;;;-0.41;85.61;99052.84;1678840;85;25916;-50
2021/01/14 01:02:52;;;;;;;92.30;45.17;;;;;;;-0.41;85.66;99052.84;1678720;84;25831;-55
2021/01/14 01:05:21;;;;;;;99.73;47.80;;;;;;;-0.41;85.68;99058.15;1679455;83;25750;-53
2021/01/14 01:07:51;;;;;;;93.40;45.45;;;;;;;-0.42;85.69;99061.86;1678890;84;25692;-54
2021/01/14 01:10:19;;;;;;;99.40;43.40;;;;;;;-0.42;85.59;99067.17;1679107;85;25887;-55
2021/01/14 01:12:53;;;;;;;98.50;46.48;;;;;;;-0.43;85.62;99070.09;1678804;84;25826;-56
2021/01/14 01:15:21;;;;;;;90.10;42.80;;;;;;;-0.49;85.56;99066.64;1678293;83;25875;-55
2021/01/14 01:17:48;;;;;;;84.58;40.85;;;;;;;-0.53;85.56;99066.89;1678720;83;25734;-50
2021/01/14 01:20:16;;;;;;;86.45;39.95;;;;;;;-0.56;85.61;99068.78;1679446;83;25666;-54
2021/01/14 01:22:42;;;;;;;84.22;40.45;;;;;;;-0.57;85.78;99066.62;1679801;84;26687;-55
2021/01/14 01:25:10;;;;;;;85.42;39.55;;;;;;;-0.57;85.89;99061.86;1679671;84;26283;-50
2021/01/14 01:27:37;;;;;;;78.65;38.35;;;;;;;-0.56;85.93;99062.14;1681054;85;25695;-55
2021/01/14 01:30:08;;;;;;;86.12;39.63;;;;;;;-0.57;86.05;99062.64;1680193;85;25824;-48
2021/01/14 01:32:35;;;;;;;85.77;39.38;;;;;;;-0.53;86.13;99056.80;1681299;85;25715;-48
2021/01/14 01:35:02;;;;;;;73.45;37.73;;;;;;;-0.52;86.22;99057.88;1681790;85;26232;-45
2021/01/14 01:37:29;;;;;;;81.00;41.20;;;;;;;-0.49;86.20;99056.56;1681627;85;25764;-53
2021/01/14 01:39:55;;;;;;;82.65;39.13;;;;;;;-0.48;86.21;99055.48;1681743;85;25647;-46
2021/01/14 01:42:22;;;;;;;81.30;40.00;;;;;;;-0.46;86.20;99062.14;1681792;85;25518;-53
2021/01/14 01:44:49;;;;;;;77.80;37.70;;;;;;;-0.45;86.19;99058.94;1681746;85;25651;-45
2021/01/14 01:47:17;;;;;;;81.35;38.58;;;;;;;-0.43;86.21;99060.25;1681689;85;26191;-47
2021/01/14 01:49:44;;;;;;;80.72;40.75;;;;;;;-0.41;86.20;99060.80;1681666;85;25700;-53
2021/01/14 01:52:11;;;;;;;86.85;40.08;;;;;;;-0.39;86.17;99059.21;1681700;85;25631;-53
2021/01/14 01:54:38;;;;;;;81.85;39.88;;;;;;;-0.36;86.20;99049.89;1681592;85;25734;-45
2021/01/14 01:57:05;;;;;;;82.67;40.10;;;;;;;-0.36;86.12;99059.98;1681804;85;26032;-54
2021/01/14 01:59:33;;;;;;;81.02;39.92;;;;;;;-0.35;86.05;99058.94;1681798;85;25986;-50
2021/01/14 02:02:20;;;;;;;84.75;39.78;;;;;;;-0.34;86.05;99062.38;1681691;85;25881;-46
2021/01/14 02:04:47;;;;;;;76.37;38.10;;;;;;;-0.33;86.04;99058.13;1681717;85;25683;-54
2021/01/14 02:07:23;;;;;;;83.80;40.33;;;;;;;-0.31;86.02;99068.49;1681710;85;25692;-49
2021/01/14 02:09:53;;;;;;;84.60;41.02;;;;;;;-0.30;86.03;99066.11;1681303;85;25727;-45
2021/01/14 02:12:23;;;;;;;79.25;39.13;;;;;;;-0.29;86.05;99067.18;1681742;85;26206;-45
2021/01/14 02:14:54;;;;;;;81.28;40.45;;;;;;;-0.29;86.02;99064.52;1681536;85;25604;-47
2021/01/14 02:17:22;;;;;;;83.10;41.13;;;;;;;-0.28;86.01;99073.28;1681673;85;25689;-51
2021/01/14 02:19:50;;;;;;;91.80;42.27;;;;;;;-0.28;86.02;99078.05;1681676;85;25635;-54
2021/01/14 02:22:30;;;;;;;95.90;42.90;;;;;;;-0.27;86.06;99081.53;1681749;85;25632;-49
2021/01/14 02:25:17;;;;;;;84.75;41.77;;;;;;;-0.26;86.04;99077.25;1681845;85;25934;-53
2021/01/14 02:27:45;;;;;;;84.00;41.35;;;;;;;-0.24;86.06;99078.31;1657787;85;25685;-53
2021/01/14 02:30:14;;;;;;;85.77;41.08;;;;;;;-0.24;86.06;99072.48;1681737;85;25757;-54
2021/01/14 02:32:44;;;;;;;85.65;40.65;;;;;;;-0.25;85.98;99081.52;1681613;85;25796;-43
2021/01/14 02:35:12;;;;;;;89.50;41.15;;;;;;;-0.24;85.93;99078.31;1681712;85;25790;-44
2021/01/14 02:37:38;;;;;;;84.10;41.63;;;;;;;-0.24;85.91;99087.61;1681591;85;26017;-53
2021/01/14 02:40:07;;;;;;;92.37;42.93;;;;;;;-0.24;85.86;99076.98;1681618;85;25701;-51
2021/01/14 02:42:34;;;;;;;89.65;42.17;;;;;;;-0.25;85.92;99072.75;1682007;85;25672;-52
2021/01/14 02:45:01;;;;;;;85.55;41.80;;;;;;;-0.25;85.90;99070.88;1681589;85;25740;-50
2021/01/14 02:47:30;;;;;;;87.40;42.10;;;;;;;-0.25;85.89;99083.38;1681692;85;25602;-51
2021/01/14 02:50:04;;;;;;;76.12;40.65;;;;;;;-0.25;85.91;99086.04;1681818;85;25961;-47
2021/01/14 02:52:35;;;;;;;86.85;42.10;;;;;;;-0.24;85.93;99090.27;1681566;85;25684;-47
2021/01/14 02:55:05;;;;;;;79.32;42.83;;;;;;;-0.24;85.92;99085.78;1681698;85;25689;-44
2021/01/14 02:57:32;;;;;;;89.90;42.30;;;;;;;-0.23;85.86;99082.58;1681750;85;25696;-50
2021/01/14 03:00:00;;;;;;;84.25;43.02;;;;;;;-0.23;85.84;99082.58;1681687;85;26053;-50
2021/01/14 03:02:29;;;;;;;91.50;43.08;;;;;;;-0.24;85.86;99079.64;1681684;85;25809;-52
2021/01/14 03:04:56;;;;;;;91.90;41.95;;;;;;;-0.24;85.92;99087.11;1681561;85;25735;-53
2021/01/14 03:07:22;;;;;;;83.50;40.43;;;;;;;-0.23;85.94;99093.20;1681637;85;25633;-43
2021/01/14 03:09:49;;;;;;;85.55;42.15;;;;;;;-0.23;85.95;99082.03;1681653;85;25755;-52
2021/01/14 03:12:16;;;;;;;84.22;41.42;;;;;;;-0.22;85.92;99084.97;1681609;85;25695;-53
2021/01/14 03:14:42;;;;;;;85.87;41.63;;;;;;;-0.21;85.88;99087.88;1681639;85;26395;-51
2021/01/14 03:17:09;;;;;;;91.47;43.52;;;;;;;-0.20;85.89;99089.48;1681589;85;25668;-54
2021/01/14 03:19:36;;;;;;;86.53;41.45;;;;;;;-0.21;85.92;99083.10;1681449;85;25855;-52
2021/01/14 03:22:03;;;;;;;91.12;44.40;;;;;;;-0.19;85.97;99082.30;1680707;85;25671;-52
2021/01/14 03:24:29;;;;;;;84.60;41.80;;;;;;;-0.19;85.98;99082.30;1680907;85;25689;-50
2021/01/14 03:26:56;;;;;;;92.47;42.62;;;;;;;-0.18;86.00;99083.12;1680881;85;26247;-53
2021/01/14 03:29:23;;;;;;;87.27;41.65;;;;;;;-0.18;86.02;99088.43;1680894;85;25687;-43
2021/01/14 03:31:49;;;;;;;87.85;43.08;;;;;;;-0.17;86.03;99096.14;1680927;85;25681;-44
2021/01/14 03:34:16;;;;;;;87.80;43.35;;;;;;;-0.17;86.03;99090.83;1680798;85;25680;-44
2021/01/14 03:36:58;;;;;;;91.30;42.85;;;;;;;-0.15;86.08;99094.52;1681003;85;25627;-44
2021/01/14 03:39:26;;;;;;;88.07;41.90;;;;;;;-0.15;86.08;99092.68;1680888;85;26281;-51
2021/01/14 03:41:54;;;;;;;86.30;41.02;;;;;;;-0.14;86.03;99096.91;1680792;85;25657;-44
2021/01/14 03:44:22;;;;;;;85.90;39.95;;;;;;;-0.15;86.00;99097.99;1680901;85;25735;-49
2021/01/14 03:46:50;;;;;;;81.57;40.28;;;;;;;-0.14;86.04;99100.11;1680948;85;25652;-53
2021/01/14 03:49:18;;;;;;;82.67;42.15;;;;;;;-0.15;86.00;99097.99;1680889;85;25696;-53
2021/01/14 03:51:46;;;;;;;83.20;39.88;;;;;;;-0.15;85.96;99095.84;1680910;85;25957;-48
2021/01/14 03:54:14;;;;;;;79.73;41.00;;;;;;;-0.14;85.97;99101.44;1681101;84;25680;-54
2021/01/14 03:56:42;;;;;;;77.05;40.10;;;;;;;-0.14;86.02;99104.09;1680869;85;25724;-43
2021/01/14 03:59:09;;;;;;;78.28;38.73;;;;;;;-0.13;85.96;99103.05;1680915;85;25708;-53
2021/01/14 04:01:36;;;;;;;82.17;40.00;;;;;;;-0.14;85.89;99104.89;1680856;85;25878;-52
2021/01/14 04:04:03;;;;;;;87.70;40.23;;;;;;;-0.14;85.82;99100.11;1680810;85;26930;-53
2021/01/14 04:06:36;;;;;;;83.87;41.08;;;;;;;-0.16;85.83;99104.36;1680810;85;25653;-51
2021/01/14 04:09:04;;;;;;;80.72;41.02;;;;;;;-0.16;85.81;99107.56;1680892;85;25698;-51
2021/01/14 04:11:32;;;;;;;81.82;40.17;;;;;;;-0.16;85.89;99107.56;1680945;85;25672;-43
2021/01/14 04:14:00;;;;;;;74.17;38.23;;;;;;;-0.17;85.91;99109.43;1680886;85;25744;-50
2021/01/14 04:16:27;;;;;;;83.92;39.15;;;;;;;-0.16;85.92;99109.67;1680865;85;26009;-51
2021/01/14 04:18:53;;;;;;;83.52;40.17;;;;;;;-0.16;85.94;99112.34;1680771;85;25646;-54
2021/01/14 04:21:20;;;;;;;81.50;39.48;;;;;;;-0.16;85.97;99116.86;1681328;85;25730;-45
2021/01/14 04:23:47;;;;;;;82.50;39.60;;;;;;;-0.18;85.99;99113.14;1681512;85;25656;-52
2021/01/14 04:26:15;;;;;;;85.15;40.10;;;;;;;-0.17;86.01;99120.58;1681686;85;25700;-53
2021/01/14 04:28:42;;;;;;;82.22;38.92;;;;;;;-0.17;85.97;99122.72;1681674;85;27197;-53
2021/01/14 04:31:12;;;;;;;76.85;39.60;;;;;;;-0.17;85.98;99129.88;1681506;85;25684;-52
2021/01/14 04:33:39;;;;;;;90.90;40.67;;;;;;;-0.16;85.93;99132.81;1681618;85;25978;-54
2021/01/14 04:36:06;;;;;;;92.88;41.08;;;;;;;-0.16;85.93;99129.61;1681361;85;25647;-52
2021/01/14 04:38:33;;;;;;;83.20;41.53;;;;;;;-0.15;85.95;99129.07;1681665;85;25631;-53
2021/01/14 04:41:04;;;;;;;85.17;42.50;;;;;;;-0.16;86.00;99124.30;1681678;85;27110;-52
2021/01/14 04:43:34;;;;;;;86.63;43.78;;;;;;;-0.14;86.02;99134.13;1681546;85;25776;-53
2021/01/14 04:46:11;;;;;;;84.77;41.68;;;;;;;-0.13;86.05;99130.41;1681645;85;25631;-44
2021/01/14 04:48:45;;;;;;;93.55;42.73;;;;;;;-0.13;86.04;99138.93;1681616;85;25632;-48
2021/01/14 04:51:18;;;;;;;93.00;44.60;;;;;;;-0.13;86.02;99149.02;1680892;85;25759;-49
2021/01/14 04:53:47;;;;;;;89.85;43.35;;;;;;;-0.12;86.05;99151.96;1681370;85;26061;-48
2021/01/14 04:56:15;;;;;;;;;;;;;;;-0.11;85.98;99144.23;1684051;85;25298;-55
2021/01/14 04:58:48;;;;;;;93.30;41.98;;;;;;;-0.10;85.91;99145.02;1681535;85;25708;-43
2021/01/14 05:04:04;;;;;;;109.17;55.88;;;;;;;-0.08;85.88;99133.61;1832063;76;27763;-53
2021/01/14 05:06:35;;;;;;;91.70;44.03;;;;;;;-0.09;85.74;99142.64;1818093;78;25716;-45
2021/01/14 05:09:07;;;;;;;84.87;42.98;;;;;;;-0.09;85.71;99144.75;1818081;78;27314;-43
2021/01/14 05:11:45;;;;;;;93.67;44.10;;;;;;;-0.10;85.68;99153.81;1817850;78;25581;-56
2021/01/14 05:14:12;;;;;;;89.45;42.40;;;;;;;-0.10;85.74;99155.66;1786324;78;25719;-52
2021/01/14 05:16:39;;;;;;;91.30;41.50;;;;;;;-0.12;85.78;99155.95;1817960;78;25590;-54
2021/01/14 05:19:05;;;;;;;92.05;43.68;;;;;;;-0.13;85.73;99154.87;1818002;78;25600;-45
2021/01/14 05:21:34;;;;;;;93.67;42.90;;;;;;;-0.15;85.78;99155.14;1817975;78;25803;-43
2021/01/14 05:26:49;;;;;;;112.67;57.90;;;;;;;-0.09;85.85;99162.03;1871184;76;30655;-45
2021/01/14 05:29:20;;;;;;;99.90;44.93;;;;;;;-0.11;85.75;99170.81;1858302;77;25674;-49
2021/01/14 05:31:49;;;;;;;88.55;41.90;;;;;;;-0.09;85.67;99170.55;1858294;77;26216;-45
2021/01/14 05:34:17;;;;;;;87.15;40.85;;;;;;;-0.10;85.74;99167.11;1858146;77;25616;-44
2021/01/14 05:37:02;;;;;;;93.67;41.70;;;;;;;-0.11;85.75;99172.14;1858295;77;25614;-53
2021/01/14 05:39:27;;;;;;;84.30;39.98;;;;;;;-0.13;85.69;99176.14;1857730;77;25170;-54
2021/01/14 05:41:54;;;;;;;99.70;42.27;;;;;;;-0.16;85.64;99171.35;1858411;77;25619;-53
2021/01/14 05:44:36;;;;;;;84.85;40.45;;;;;;;-0.16;85.62;99176.13;1858332;77;25948;-50
2021/01/14 05:47:23;;;;;;;93.37;42.30;;;;;;;-0.18;85.61;99182.25;1820547;78;25605;-54
2021/01/14 05:50:05;;;;;;;84.05;39.67;;;;;;;-0.21;85.59;99182.23;1820653;78;25550;-46
2021/01/14 05:52:34;;;;;;;90.30;39.27;;;;;;;-0.24;85.52;99181.45;1786531;80;25677;-45
2021/01/14 05:55:12;;;;;;;83.67;40.78;;;;;;;-0.25;85.58;99183.05;1820628;78;25578;-48
2021/01/14 05:57:40;;;;;;;81.50;37.03;;;;;;;-0.29;85.53;99180.63;1786729;80;26802;-53
2021/01/14 06:00:14;;;;;;;85.62;39.53;;;;;;;-0.31;85.62;99180.10;1820428;78;25606;-45
2021/01/14 06:02:41;;;;;;;82.27;39.13;;;;;;;-0.32;85.63;99182.48;1786441;80;26165;-51
2021/01/14 06:05:32;;;;;;;81.75;37.58;;;;;;;-0.33;85.72;99180.91;1820482;78;25593;-54
2021/01/14 06:07:59;;;;;;;86.22;36.40;;;;;;;-0.34;85.74;99185.43;1786359;80;25578;-50
2021/01/14 06:10:34;;;;;;;75.08;34.88;;;;;;;-0.35;85.73;99183.03;1820535;78;25681;-45
2021/01/14 06:13:01;;;;;;;81.28;37.45;;;;;;;-0.36;85.75;99190.72;1786436;80;25580;-47
2021/01/14 06:15:28;;;;;;;82.72;38.35;;;;;;;-0.36;85.75;99196.83;1820446;78;25573;-54
2021/01/14 06:17:58;;;;;;;80.05;36.53;;;;;;;-0.36;85.77;99194.17;1786567;80;25670;-47
2021/01/14 06:20:27;;;;;;;77.32;34.03;;;;;;;-0.35;85.82;99196.32;1820555;78;25589;-57
2021/01/14 06:22:58;;;;;;;77.92;33.13;;;;;;;-0.38;85.80;99195.76;1786691;80;25699;-48
2021/01/14 06:25:26;;;;;;;79.12;36.85;;;;;;;-0.38;85.72;99196.30;1820384;78;26280;-44
2021/01/14 06:27:56;;;;;;;74.95;32.85;;;;;;;-0.38;85.69;99193.64;1786543;80;25591;-46
2021/01/14 06:30:23;;;;;;;74.58;33.28;;;;;;;-0.39;85.65;99197.38;1820371;78;25679;-58
2021/01/14 06:33:01;;;;;;;73.85;32.70;;;;;;;-0.40;85.57;99201.88;1786450;80;25614;-46
2021/01/14 06:35:28;;;;;;;76.85;32.58;;;;;;;-0.44;85.45;99198.70;1820532;78;25981;-56
2021/01/14 06:37:59;;;;;;;75.42;33.92;;;;;;;-0.46;85.33;99204.27;1784547;80;25722;-51
2021/01/14 06:40:29;;;;;;;79.95;35.05;;;;;;;-0.49;85.26;99207.45;1818677;78;25862;-55
2021/01/14 06:42:57;;;;;;;;;;;;;;;-0.52;85.15;99221.78;1787551;80;25731;-55
2021/01/14 06:45:30;;;;;;;74.60;32.70;;;;;;;-0.55;85.10;99229.73;1818823;78;25636;-47
2021/01/14 06:48:03;;;;;;;71.07;31.35;;;;;;;-0.59;85.28;99229.45;1785209;80;26162;-49
2021/01/14 06:50:31;;;;;;;70.00;30.62;;;;;;;-0.61;85.33;99237.44;1818848;78;25839;-44
2021/01/14 06:53:13;;;;;;;71.33;31.82;;;;;;;-0.64;85.37;99238.73;1785344;80;25710;-56
2021/01/14 06:55:40;;;;;;;66.87;30.17;;;;;;;-0.65;85.36;99244.31;1819972;78;25625;-52
2021/01/14 06:58:13;;;;;;;80.97;32.53;;;;;;;-0.67;85.39;99245.11;1785956;80;25671;-50
2021/01/14 07:00:45;;;;;;;73.70;30.52;;;;;;;-0.68;85.32;99250.14;1787637;80;25968;-57
2021/01/14 07:03:23;;;;;;;81.82;33.60;;;;;;;-0.69;85.46;99246.69;1819527;78;25594;-54
2021/01/14 07:05:58;;;;;;;79.62;33.30;;;;;;;-0.68;85.46;99256.77;1785893;80;25601;-47
2021/01/14 07:09:03;;;;;;;84.92;34.75;;;;;;;-0.68;85.48;99257.59;1819977;78;25629;-49
2021/01/14 07:11:34;;;;;;;98.62;40.80;;;;;;;-0.68;85.53;99258.10;1786026;80;25646;-57
2021/01/14 07:14:06;;;;;;;79.03;34.33;;;;;;;-0.65;85.63;99265.56;1818776;78;25700;-57
2021/01/14 07:16:35;;;;;;;80.55;34.92;;;;;;;-0.64;85.70;99267.16;1784109;80;25710;-46
2021/01/14 07:19:01;;;;;;;83.65;34.73;;;;;;;-0.61;85.71;99269.31;1819929;78;25942;-50
2021/01/14 07:21:44;;;;;;;85.53;36.38;;;;;;;-0.61;85.77;99275.41;1785880;80;25657;-56
2021/01/14 07:24:29;;;;;;;82.85;34.73;;;;;;;-0.58;85.79;99280.21;1820082;78;25657;-45
2021/01/14 07:26:58;;;;;;;81.17;34.03;;;;;;;-0.55;85.76;99277.55;1785915;80;25899;-49
2021/01/14 07:29:25;;;;;;;88.70;39.30;;;;;;;-0.54;85.72;99280.48;1819947;78;25618;-47
2021/01/14 07:31:55;;;;;;;83.67;36.85;;;;;;;-0.53;85.76;99282.06;1785900;80;25701;-56
2021/01/14 07:34:41;;;;;;;81.87;37.10;;;;;;;-0.50;85.77;99286.08;1819766;78;25644;-51
2021/01/14 07:37:18;;;;;;;80.12;34.00;;;;;;;-0.48;85.68;99291.38;1785904;80;25647;-51
2021/01/14 07:39:58;;;;;;;68.85;32.35;;;;;;;-0.47;85.58;99294.86;1820035;78;27046;-57
2021/01/14 07:42:33;;;;;;;74.67;33.88;;;;;;;-0.46;85.58;99297.77;1785887;80;25641;-56
2021/01/14 07:45:05;;;;;;;71.97;32.60;;;;;;;-0.45;85.62;99299.37;1819887;78;25661;-57
2021/01/14 07:47:37;;;;;;;71.80;34.10;;;;;;;-0.44;85.58;99298.33;1819864;78;25559;-59
2021/01/14 07:50:29;;;;;;;75.55;33.48;;;;;;;-0.43;85.56;99293.27;1787533;80;25653;-57
2021/01/14 07:52:58;;;;;;;69.22;31.68;;;;;;;-0.41;85.60;99299.11;1819865;78;25702;-54
2021/01/14 07:58:23;;;;;;;68.50;31.30;;;;;;;-0.32;85.48;99310.03;1848080;76;32864;-58
2021/01/14 08:01:10;;;;;;;68.47;31.33;;;;;;;-0.39;85.50;99315.63;1818053;78;25793;-59
2021/01/14 08:03:45;;;;;;;65.72;30.68;;;;;;;-0.37;85.55;99322.80;1818110;78;27536;-55
2021/01/14 08:06:42;;;;;;;72.60;30.85;;;;;;;-0.35;85.50;99327.31;1817917;78;25636;-54
2021/01/14 08:09:10;;;;;;;75.20;28.55;;;;;;;-0.35;85.38;99334.50;1817299;78;25601;-56
2021/01/14 08:11:51;;;;;;;82.40;32.67;;;;;;;-0.34;85.42;99338.23;1817903;78;25793;-53
2021/01/14 08:14:20;;;;;;;72.40;31.55;;;;;;;-0.36;85.27;99342.19;1818076;78;25645;-56
2021/01/14 08:16:55;;;;;;;78.90;32.42;;;;;;;-0.36;85.29;99343.52;1818103;78;26638;-56
2021/01/14 08:19:32;;;;;;;82.20;31.97;;;;;;;-0.36;85.38;99356.27;1817707;78;25722;-53
2021/01/14 08:22:07;;;;;;;67.35;27.85;;;;;;;-0.35;85.34;99351.77;1818012;78;25594;-48
2021/01/14 08:24:47;;;;;;;51.02;24.80;;;;;;;-0.36;85.27;99359.46;1817453;78;25557;-46
2021/01/14 08:27:34;;;;;;;53.70;24.23;;;;;;;-0.38;85.01;99363.70;1818013;78;25652;-52
2021/01/14 08:30:08;;;;;;;55.50;25.32;;;;;;;-0.40;85.04;99371.92;1817783;78;25961;-57
2021/01/14 08:33:04;;;;;;;58.87;24.87;;;;;;;-0.41;84.97;99369.53;1811506;78;25738;-55
2021/01/14 08:35:33;;;;;;;56.53;25.25;;;;;;;-0.41;85.01;99373.52;1817850;78;25689;-56
2021/01/14 08:40:46;;;;;;;57.27;26.62;;;;;;;-0.30;85.34;99380.48;1848038;76;32861;-55
2021/01/14 08:43:21;;;;;;;59.75;26.55;;;;;;;-0.32;85.41;99379.12;1818056;78;25712;-57
2021/01/14 08:45:55;;;;;;;59.95;26.10;;;;;;;-0.28;85.40;99386.34;1818067;78;26895;-48
2021/01/14 08:48:29;;;;;;;55.40;25.95;;;;;;;-0.25;85.27;99383.70;1818030;78;25701;-56
2021/01/14 08:51:01;;;;;;;57.60;26.33;;;;;;;-0.24;85.20;99391.42;1817962;78;25664;-59
2021/01/14 08:53:32;;;;;;;55.67;25.60;;;;;;;-0.24;85.09;99395.41;1817985;78;25593;-52
2021/01/14 08:56:17;;;;;;;57.55;25.80;;;;;;;-0.23;84.91;99397.53;1818083;78;25760;-45
2021/01/14 08:58:50;;;;;;;54.77;25.50;;;;;;;-0.23;84.90;99406.29;1817929;78;25683;-56
2021/01/14 09:01:26;;;;;;;59.23;26.35;;;;;;;-0.25;84.71;99403.09;1817646;78;25680;-45
2021/01/14 09:03:55;;;;;;;55.25;25.37;;;;;;;-0.26;84.69;99407.34;1817987;78;25632;-48
2021/01/14 09:06:32;;;;;;;59.35;25.80;;;;;;;-0.24;84.71;99411.35;1818253;78;25700;-56
2021/01/14 09:09:02;;;;;;;57.62;25.88;;;;;;;-0.24;84.79;99411.35;1816719;77;25605;-56
2021/01/14 09:11:30;;;;;;;59.90;26.10;;;;;;;-0.22;84.79;99411.09;1830653;77;25889;-47
2021/01/14 09:14:04;;;;;;;57.95;24.82;;;;;;;-0.21;84.78;99408.69;1776598;80;25701;-58
2021/01/14 09:16:32;;;;;;;57.08;24.23;;;;;;;-0.21;84.70;99408.69;1797721;79;25740;-55
2021/01/14 09:18:59;;;;;;;53.38;24.10;;;;;;;-0.19;84.75;99415.88;1776634;80;26295;-55
2021/01/14 09:21:27;;;;;;;60.33;27.58;;;;;;;-0.20;84.71;99420.40;1797963;79;25767;-54
2021/01/14 09:23:53;;;;;;;57.20;25.50;;;;;;;-0.18;84.64;99423.34;1776587;80;25914;-48
2021/01/14 09:26:20;;;;;;;60.05;26.05;;;;;;;-0.18;84.62;99428.11;1797411;79;25773;-57
2021/01/14 09:28:50;;;;;;;55.85;24.65;;;;;;;-0.18;84.59;99426.00;1776589;80;26426;-50
2021/01/14 09:31:19;;;;;;;58.92;26.33;;;;;;;-0.18;84.53;99428.66;1797726;79;25656;-58
2021/01/14 09:33:48;;;;;;;54.20;25.82;;;;;;;-0.22;84.44;99421.19;1776612;80;25927;-57
2021/01/14 09:36:22;;;;;;;56.77;26.15;;;;;;;-0.21;84.56;99423.31;1774234;79;26660;-50
2021/01/14 09:38:55;;;;;;;52.93;22.93;;;;;;;-0.20;84.58;99435.55;1766963;81;25775;-55
2021/01/14 09:41:39;;;;;;;53.52;25.82;;;;;;;-0.20;84.57;99432.89;1766751;81;26289;-55
2021/01/14 09:44:14;;;;;;;54.35;25.48;;;;;;;-0.18;84.60;99433.43;1766599;81;25663;-55
2021/01/14 09:46:44;;;;;;;58.25;25.85;;;;;;;-0.15;84.65;99435.58;1766998;81;26444;-57
2021/01/14 09:49:14;;;;;;;53.73;25.40;;;;;;;-0.12;84.64;99436.39;1766800;80;25749;-57
2021/01/14 09:51:43;;;;;;;49.90;24.45;;;;;;;-0.07;84.62;99443.06;1766010;81;25806;-58
2021/01/14 09:54:11;;;;;;;57.50;25.57;;;;;;;-0.01;84.78;99444.67;1766391;81;26058;-58
2021/01/14 09:56:48;;;;;;;51.80;23.80;;;;;;;0.07;84.85;99450.55;1766141;81;25777;-59
2021/01/14 09:59:43;;;;;;;53.60;24.45;;;;;;;0.13;84.95;99445.53;1766252;81;25758;-58
2021/01/14 10:02:20;;;;;;;47.15;23.15;;;;;;;0.25;84.98;99450.63;1766154;81;26413;-58
2021/01/14 10:04:56;;;;;;;48.83;23.27;;;;;;;0.34;84.75;99457.02;1765819;81;25713;-57
2021/01/14 10:07:25;;;;;;;52.05;23.00;;;;;;;0.41;84.72;99452.28;1766020;81;25663;-56
2021/01/14 10:09:53;;;;;;;49.40;22.62;;;;;;;0.46;84.53;99462.12;1766362;81;25683;-56
2021/01/14 10:12:21;;;;;;;44.90;21.40;;;;;;;0.47;84.28;99462.39;1765841;81;26487;-57
2021/01/14 10:14:48;;;;;;;40.85;20.40;;;;;;;0.47;83.99;99469.84;1766146;81;25909;-56
2021/01/14 10:17:16;;;;;;;40.43;19.67;;;;;;;0.45;83.59;99472.51;1716803;81;30540;-56
2021/01/14 10:19:49;;;;;;;40.78;20.20;;;;;;;0.41;83.39;99474.08;1707976;82;26167;-57
2021/01/14 10:22:17;;;;;;;43.15;20.35;;;;;;;0.36;83.21;99473.01;1709209;82;25847;-56
2021/01/14 10:24:44;;;;;;;41.28;19.70;;;;;;;0.34;83.38;99476.98;1709454;82;25710;-56
2021/01/14 10:27:18;;;;;;;42.85;20.27;;;;;;;0.34;83.50;99472.98;1708914;82;26694;-53
2021/01/14 10:29:46;;;;;;;39.53;20.40;;;;;;;0.34;83.50;99473.81;1709279;83;26058;-55
2021/01/14 10:32:22;;;;;;;40.38;20.97;;;;;;;0.35;83.57;99474.06;1709283;82;25813;-56
2021/01/14 10:34:53;;;;;;;41.33;19.73;;;;;;;0.39;83.56;99466.89;1706182;82;26260;-55
2021/01/14 10:37:33;;;;;;;42.27;20.68;;;;;;;0.45;83.74;99473.84;1701584;83;25825;-57
2021/01/14 10:40:04;;;;;;;40.67;19.35;;;;;;;0.52;83.82;99477.84;1701562;83;25790;-58
2021/01/14 10:42:38;;;;;;;41.08;20.68;;;;;;;0.62;83.92;99483.73;1698521;84;26454;-58
2021/01/14 10:45:08;;;;;;;40.20;20.43;;;;;;;0.67;83.56;99482.41;1701461;82;25829;-58
2021/01/14 10:47:37;;;;;;;39.35;19.90;;;;;;;0.71;83.30;99490.66;1701511;82;26030;-55
2021/01/14 10:50:26;;;;;;;37.90;19.77;;;;;;;0.73;83.19;99486.69;1701693;84;25442;-59
2021/01/14 10:53:05;;;;;;;41.33;20.43;;;;;;;0.71;82.89;99490.13;1701577;82;26008;-59
2021/01/14 10:55:33;;;;;;;40.75;21.12;;;;;;;0.68;82.77;99488.52;1701489;82;26298;-60
2021/01/14 10:58:03;;;;;;;44.25;21.97;;;;;;;0.63;82.65;99484.52;1701584;82;25650;-57
2021/01/14 11:00:38;;;;;;;42.15;21.75;;;;;;;0.62;82.75;99482.39;1701570;82;25782;-58
2021/01/14 11:03:14;;;;;;;39.05;20.43;;;;;;;0.62;82.64;99484.27;1701428;82;26586;-59
2021/01/14 11:05:48;;;;;;;39.45;20.57;;;;;;;0.62;82.68;99489.05;1701491;82;27393;-58
2021/01/14 11:08:28;;;;;;;34.80;19.07;;;;;;;0.65;82.62;99481.09;1701427;82;26006;-59
2021/01/14 11:11:10;;;;;;;34.88;18.60;;;;;;;0.66;82.43;99484.00;1701099;82;26410;-57
2021/01/14 11:13:47;;;;;;;33.35;18.57;;;;;;;0.63;82.27;99486.66;1701454;82;25773;-57
2021/01/14 11:16:22;;;;;;;34.13;18.37;;;;;;;0.58;82.07;99478.67;1688660;82;41416;-58
2021/01/14 11:18:51;;;;;;;34.23;19.00;;;;;;;0.50;81.75;99481.30;1671632;84;25748;-59
2021/01/14 11:21:29;;;;;;;;;;;;;;;0.46;81.81;99484.73;1674062;84;26444;-58
2021/01/14 11:23:57;;;;;;;34.55;18.25;;;;;;;0.43;81.81;99495.38;1671933;84;25692;-58
2021/01/14 11:26:24;;;;;;;33.85;19.30;;;;;;;0.36;81.73;99495.63;1671684;84;26484;-54
2021/01/14 11:28:51;;;;;;;39.15;20.43;;;;;;;0.30;81.54;99502.52;1671722;84;25803;-59
2021/01/14 11:31:21;;;;;;;35.50;18.95;;;;;;;0.25;81.51;99509.14;1671790;84;26850;-57
2021/01/14 11:33:48;;;;;;;34.48;18.42;;;;;;;0.22;81.79;99514.44;1671477;84;26296;-59
2021/01/14 11:36:20;;;;;;;33.20;17.95;;;;;;;0.23;81.91;99521.37;1690252;84;25990;-58
2021/01/14 11:38:48;;;;;;;40.25;20.40;;;;;;;0.23;81.71;99530.67;1699296;84;26037;-56
2021/01/14 11:41:20;;;;;;;40.20;21.15;;;;;;;0.20;81.48;99527.20;1701023;84;25758;-57
2021/01/14 11:43:47;;;;;;;37.58;21.10;;;;;;;0.16;81.27;99528.78;1701216;84;27246;-53
2021/01/14 11:46:16;;;;;;;36.38;21.10;;;;;;;0.12;81.13;99527.17;1700048;83;25771;-56
2021/01/14 11:48:43;;;;;;;35.90;19.65;;;;;;;0.09;81.04;99537.00;1721866;83;25832;-56